sensor_id;sensor_type;location;lat;lon;timestamp;P1;durP1;ratioP1;P2;durP2;ratioP2
71767;SDS011;59604;52.138;5.446;2022-10-31T00:00:55;17.17;;;7.00;;
71767;SDS011;59604;52.138;5.446;2022-10-31T00:03:21;19.63;;;7.85;;
71767;SDS011;59604;52.138;5.446;2022-10-31T00:05:48;14.27;;;7.25;;
71767;SDS011;59604;52.138;5.446;2022-10-31T00:08:16;21.83;;;8.65;;
71767;SDS011;59604;52.138;5.446;2022-10-31T00:10:43;20.23;;;8.52;;
71767;SDS011;59604;52.138;5.446;2022-10-31T00:13:12;19.27;;;8.45;;
71767;SDS011;59604;52.138;5.446;2022-10-31T00:15:39;19.05;;;8.10;;
71767;SDS011;59604;52.138;5.446;2022-10-31T00:18:07;18.42;;;8.80;;
71767;SDS011;59604;52.138;5.446;2022-10-31T00:20:35;17.38;;;8.27;;
71767;SDS011;59604;52.138;5.446;2022-10-31T00:23:02;18.98;;;7.85;;
71767;SDS011;59604;52.138;5.446;2022-10-31T00:28:03;19.27;;;8.25;;
71767;SDS011;59604;52.138;5.446;2022-10-31T00:30:31;17.60;;;7.82;;
71767;SDS011;59604;52.138;5.446;2022-10-31T00:32:58;18.23;;;8.18;;
71767;SDS011;59604;52.138;5.446;2022-10-31T00:35:25;16.70;;;8.27;;
71767;SDS011;59604;52.138;5.446;2022-10-31T00:37:51;17.77;;;7.78;;
71767;SDS011;59604;52.138;5.446;2022-10-31T00:40:18;17.65;;;8.15;;
71767;SDS011;59604;52.138;5.446;2022-10-31T00:42:44;19.02;;;8.45;;
71767;SDS011;59604;52.138;5.446;2022-10-31T00:45:11;19.98;;;8.85;;
71767;SDS011;59604;52.138;5.446;2022-10-31T00:47:38;20.27;;;9.45;;
71767;SDS011;59604;52.138;5.446;2022-10-31T00:50:05;18.20;;;8.10;;
71767;SDS011;59604;52.138;5.446;2022-10-31T00:52:32;17.92;;;8.82;;
71767;SDS011;59604;52.138;5.446;2022-10-31T00:54:58;21.02;;;8.63;;
71767;SDS011;59604;52.138;5.446;2022-10-31T00:57:25;17.33;;;8.73;;
71767;SDS011;59604;52.138;5.446;2022-10-31T00:59:52;17.67;;;8.55;;
71767;SDS011;59604;52.138;5.446;2022-10-31T01:02:18;17.63;;;9.13;;
71767;SDS011;59604;52.138;5.446;2022-10-31T01:04:45;18.10;;;9.30;;
71767;SDS011;59604;52.138;5.446;2022-10-31T01:07:12;18.15;;;8.18;;
71767;SDS011;59604;52.138;5.446;2022-10-31T01:09:40;19.02;;;8.82;;
71767;SDS011;59604;52.138;5.446;2022-10-31T01:12:06;16.70;;;8.48;;
71767;SDS011;59604;52.138;5.446;2022-10-31T01:14:33;16.83;;;7.95;;
71767;SDS011;59604;52.138;5.446;2022-10-31T01:16:59;18.25;;;8.60;;
71767;SDS011;59604;52.138;5.446;2022-10-31T01:19:26;18.52;;;8.55;;
71767;SDS011;59604;52.138;5.446;2022-10-31T01:21:55;21.85;;;8.77;;
71767;SDS011;59604;52.138;5.446;2022-10-31T01:24:22;17.33;;;8.25;;
71767;SDS011;59604;52.138;5.446;2022-10-31T01:26:48;20.00;;;8.45;;
71767;SDS011;59604;52.138;5.446;2022-10-31T01:29:15;16.65;;;8.65;;
71767;SDS011;59604;52.138;5.446;2022-10-31T01:31:41;17.30;;;8.07;;
71767;SDS011;59604;52.138;5.446;2022-10-31T01:34:09;15.15;;;7.60;;
71767;SDS011;59604;52.138;5.446;2022-10-31T01:36:39;18.45;;;7.88;;
71767;SDS011;59604;52.138;5.446;2022-10-31T01:39:13;17.73;;;8.25;;
71767;SDS011;59604;52.138;5.446;2022-10-31T01:41:41;19.08;;;7.95;;
71767;SDS011;59604;52.138;5.446;2022-10-31T01:46:42;15.90;;;7.70;;
71767;SDS011;59604;52.138;5.446;2022-10-31T01:49:56;18.02;;;7.97;;
71767;SDS011;59604;52.138;5.446;2022-10-31T01:52:11;18.13;;;7.93;;
71767;SDS011;59604;52.138;5.446;2022-10-31T01:54:45;16.48;;;7.57;;
71767;SDS011;59604;52.138;5.446;2022-10-31T01:57:17;15.98;;;7.90;;
71767;SDS011;59604;52.138;5.446;2022-10-31T01:59:47;17.48;;;7.28;;
71767;SDS011;59604;52.138;5.446;2022-10-31T02:02:19;16.13;;;7.85;;
71767;SDS011;59604;52.138;5.446;2022-10-31T02:04:46;19.60;;;8.35;;
71767;SDS011;59604;52.138;5.446;2022-10-31T02:07:14;15.82;;;7.50;;
71767;SDS011;59604;52.138;5.446;2022-10-31T02:09:45;18.45;;;7.78;;
71767;SDS011;59604;52.138;5.446;2022-10-31T02:12:13;16.77;;;7.72;;
71767;SDS011;59604;52.138;5.446;2022-10-31T02:14:41;16.73;;;7.25;;
71767;SDS011;59604;52.138;5.446;2022-10-31T02:17:08;17.23;;;7.78;;
71767;SDS011;59604;52.138;5.446;2022-10-31T02:19:40;18.30;;;8.27;;
71767;SDS011;59604;52.138;5.446;2022-10-31T02:28:11;7.75;;;4.32;;
71767;SDS011;59604;52.138;5.446;2022-10-31T02:36:11;9.82;;;5.00;;
71767;SDS011;59604;52.138;5.446;2022-10-31T02:41:49;9.52;;;4.47;;
71767;SDS011;59604;52.138;5.446;2022-10-31T02:44:35;9.00;;;4.40;;
71767;SDS011;59604;52.138;5.446;2022-10-31T02:47:11;9.50;;;4.07;;
71767;SDS011;59604;52.138;5.446;2022-10-31T02:49:45;8.10;;;3.90;;
71767;SDS011;59604;52.138;5.446;2022-10-31T02:52:27;8.15;;;3.85;;
71767;SDS011;59604;52.138;5.446;2022-10-31T02:54:55;7.25;;;4.10;;
71767;SDS011;59604;52.138;5.446;2022-10-31T02:57:31;9.10;;;4.50;;
71767;SDS011;59604;52.138;5.446;2022-10-31T03:00:03;7.00;;;3.70;;
71767;SDS011;59604;52.138;5.446;2022-10-31T03:02:35;8.25;;;4.07;;
71767;SDS011;59604;52.138;5.446;2022-10-31T03:05:23;7.55;;;4.00;;
71767;SDS011;59604;52.138;5.446;2022-10-31T03:13:03;6.72;;;3.50;;
71767;SDS011;59604;52.138;5.446;2022-10-31T03:15:36;8.02;;;4.28;;
71767;SDS011;59604;52.138;5.446;2022-10-31T03:20:40;8.65;;;4.10;;
71767;SDS011;59604;52.138;5.446;2022-10-31T03:23:11;8.13;;;3.90;;
71767;SDS011;59604;52.138;5.446;2022-10-31T03:25:40;7.22;;;3.67;;
71767;SDS011;59604;52.138;5.446;2022-10-31T03:28:10;8.43;;;4.50;;
71767;SDS011;59604;52.138;5.446;2022-10-31T03:30:41;9.23;;;4.28;;
71767;SDS011;59604;52.138;5.446;2022-10-31T03:33:11;7.85;;;3.97;;
71767;SDS011;59604;52.138;5.446;2022-10-31T03:35:42;7.50;;;4.00;;
71767;SDS011;59604;52.138;5.446;2022-10-31T03:38:13;7.30;;;3.83;;
71767;SDS011;59604;52.138;5.446;2022-10-31T03:40:41;8.68;;;4.07;;
71767;SDS011;59604;52.138;5.446;2022-10-31T03:43:16;7.38;;;3.80;;
71767;SDS011;59604;52.138;5.446;2022-10-31T03:45:47;8.13;;;4.22;;
71767;SDS011;59604;52.138;5.446;2022-10-31T03:48:15;7.53;;;4.03;;
71767;SDS011;59604;52.138;5.446;2022-10-31T03:50:57;7.55;;;3.90;;
71767;SDS011;59604;52.138;5.446;2022-10-31T03:53:37;7.97;;;3.50;;
71767;SDS011;59604;52.138;5.446;2022-10-31T03:56:09;5.93;;;3.00;;
71767;SDS011;59604;52.138;5.446;2022-10-31T03:58:47;7.47;;;3.00;;
71767;SDS011;59604;52.138;5.446;2022-10-31T04:01:19;5.35;;;2.83;;
71767;SDS011;59604;52.138;5.446;2022-10-31T04:03:48;6.03;;;3.25;;
71767;SDS011;59604;52.138;5.446;2022-10-31T04:06:16;6.13;;;3.40;;
71767;SDS011;59604;52.138;5.446;2022-10-31T04:08:46;8.23;;;3.53;;
71767;SDS011;59604;52.138;5.446;2022-10-31T04:11:17;6.85;;;3.33;;
71767;SDS011;59604;52.138;5.446;2022-10-31T04:13:47;6.82;;;3.72;;
71767;SDS011;59604;52.138;5.446;2022-10-31T04:16:15;8.15;;;3.95;;
71767;SDS011;59604;52.138;5.446;2022-10-31T04:18:43;8.25;;;4.03;;
71767;SDS011;59604;52.138;5.446;2022-10-31T04:21:10;8.10;;;3.60;;
71767;SDS011;59604;52.138;5.446;2022-10-31T04:23:36;8.30;;;3.90;;
71767;SDS011;59604;52.138;5.446;2022-10-31T04:26:03;7.75;;;4.10;;
71767;SDS011;59604;52.138;5.446;2022-10-31T04:28:29;9.38;;;3.75;;
71767;SDS011;59604;52.138;5.446;2022-10-31T04:30:56;7.85;;;3.50;;
71767;SDS011;59604;52.138;5.446;2022-10-31T04:33:23;7.18;;;3.67;;
71767;SDS011;59604;52.138;5.446;2022-10-31T04:35:49;26.10;;;4.50;;
71767;SDS011;59604;52.138;5.446;2022-10-31T04:38:15;7.00;;;3.53;;
71767;SDS011;59604;52.138;5.446;2022-10-31T04:40:42;8.45;;;4.00;;
71767;SDS011;59604;52.138;5.446;2022-10-31T04:43:08;6.82;;;3.45;;
71767;SDS011;59604;52.138;5.446;2022-10-31T04:45:35;7.70;;;3.88;;
71767;SDS011;59604;52.138;5.446;2022-10-31T04:48:03;12.57;;;4.03;;
71767;SDS011;59604;52.138;5.446;2022-10-31T04:50:29;11.35;;;4.78;;
71767;SDS011;59604;52.138;5.446;2022-10-31T04:52:56;11.57;;;4.45;;
71767;SDS011;59604;52.138;5.446;2022-10-31T04:55:22;9.60;;;4.20;;
71767;SDS011;59604;52.138;5.446;2022-10-31T04:57:49;10.50;;;4.22;;
71767;SDS011;59604;52.138;5.446;2022-10-31T05:00:20;7.28;;;4.22;;
71767;SDS011;59604;52.138;5.446;2022-10-31T05:05:16;7.70;;;3.75;;
71767;SDS011;59604;52.138;5.446;2022-10-31T05:07:45;6.85;;;3.90;;
71767;SDS011;59604;52.138;5.446;2022-10-31T05:10:16;10.55;;;4.10;;
71767;SDS011;59604;52.138;5.446;2022-10-31T05:12:46;9.70;;;4.30;;
71767;SDS011;59604;52.138;5.446;2022-10-31T05:20:07;9.27;;;4.18;;
71767;SDS011;59604;52.138;5.446;2022-10-31T05:22:34;12.05;;;5.07;;
71767;SDS011;59604;52.138;5.446;2022-10-31T05:25:01;13.38;;;5.40;;
71767;SDS011;59604;52.138;5.446;2022-10-31T05:27:27;14.63;;;6.00;;
71767;SDS011;59604;52.138;5.446;2022-10-31T05:29:54;15.80;;;6.90;;
71767;SDS011;59604;52.138;5.446;2022-10-31T05:32:20;16.83;;;7.30;;
71767;SDS011;59604;52.138;5.446;2022-10-31T05:34:47;18.70;;;7.90;;
71767;SDS011;59604;52.138;5.446;2022-10-31T05:37:13;14.63;;;7.00;;
71767;SDS011;59604;52.138;5.446;2022-10-31T05:39:40;16.98;;;6.60;;
71767;SDS011;59604;52.138;5.446;2022-10-31T05:42:06;17.08;;;6.32;;
71767;SDS011;59604;52.138;5.446;2022-10-31T05:44:33;23.00;;;7.53;;
71767;SDS011;59604;52.138;5.446;2022-10-31T05:46:59;37.05;;;7.55;;
71767;SDS011;59604;52.138;5.446;2022-10-31T05:49:25;33.80;;;7.00;;
71767;SDS011;59604;52.138;5.446;2022-10-31T05:51:52;31.63;;;7.38;;
71767;SDS011;59604;52.138;5.446;2022-10-31T05:54:18;30.15;;;7.63;;
71767;SDS011;59604;52.138;5.446;2022-10-31T05:56:45;22.50;;;7.22;;
71767;SDS011;59604;52.138;5.446;2022-10-31T05:59:11;33.00;;;7.25;;
71767;SDS011;59604;52.138;5.446;2022-10-31T06:01:38;29.15;;;7.28;;
71767;SDS011;59604;52.138;5.446;2022-10-31T06:04:04;27.92;;;7.68;;
71767;SDS011;59604;52.138;5.446;2022-10-31T06:06:31;28.15;;;7.38;;
71767;SDS011;59604;52.138;5.446;2022-10-31T06:08:57;21.52;;;7.18;;
71767;SDS011;59604;52.138;5.446;2022-10-31T06:11:24;22.08;;;7.30;;
71767;SDS011;59604;52.138;5.446;2022-10-31T06:13:50;18.55;;;7.00;;
71767;SDS011;59604;52.138;5.446;2022-10-31T06:16:17;18.30;;;6.72;;
71767;SDS011;59604;52.138;5.446;2022-10-31T06:18:45;22.52;;;5.72;;
71767;SDS011;59604;52.138;5.446;2022-10-31T06:21:12;14.05;;;5.00;;
71767;SDS011;59604;52.138;5.446;2022-10-31T06:23:44;15.93;;;4.70;;
71767;SDS011;59604;52.138;5.446;2022-10-31T06:26:10;14.20;;;4.68;;
71767;SDS011;59604;52.138;5.446;2022-10-31T06:28:37;24.83;;;5.43;;
71767;SDS011;59604;52.138;5.446;2022-10-31T06:31:03;18.65;;;5.45;;
71767;SDS011;59604;52.138;5.446;2022-10-31T06:33:30;13.35;;;5.13;;
71767;SDS011;59604;52.138;5.446;2022-10-31T06:35:57;18.05;;;5.05;;
71767;SDS011;59604;52.138;5.446;2022-10-31T06:38:25;27.73;;;6.28;;
71767;SDS011;59604;52.138;5.446;2022-10-31T06:40:53;23.70;;;6.47;;
71767;SDS011;59604;52.138;5.446;2022-10-31T06:43:23;14.95;;;6.20;;
71767;SDS011;59604;52.138;5.446;2022-10-31T06:45:49;17.90;;;5.72;;
71767;SDS011;59604;52.138;5.446;2022-10-31T06:48:16;21.10;;;6.63;;
71767;SDS011;59604;52.138;5.446;2022-10-31T06:50:43;19.00;;;5.93;;
71767;SDS011;59604;52.138;5.446;2022-10-31T06:53:10;27.25;;;6.32;;
71767;SDS011;59604;52.138;5.446;2022-10-31T06:55:38;19.90;;;6.03;;
71767;SDS011;59604;52.138;5.446;2022-10-31T06:58:04;28.98;;;6.63;;
71767;SDS011;59604;52.138;5.446;2022-10-31T07:00:32;21.80;;;6.50;;
71767;SDS011;59604;52.138;5.446;2022-10-31T07:03:01;18.42;;;6.78;;
71767;SDS011;59604;52.138;5.446;2022-10-31T07:05:29;24.38;;;6.97;;
71767;SDS011;59604;52.138;5.446;2022-10-31T07:08:00;21.00;;;7.47;;
71767;SDS011;59604;52.138;5.446;2022-10-31T07:10:29;17.73;;;7.13;;
71767;SDS011;59604;52.138;5.446;2022-10-31T07:13:05;15.35;;;6.25;;
71767;SDS011;59604;52.138;5.446;2022-10-31T07:15:35;15.13;;;6.60;;
71767;SDS011;59604;52.138;5.446;2022-10-31T07:18:03;25.33;;;7.13;;
71767;SDS011;59604;52.138;5.446;2022-10-31T07:20:31;20.55;;;8.38;;
71767;SDS011;59604;52.138;5.446;2022-10-31T07:22:59;16.00;;;6.70;;
71767;SDS011;59604;52.138;5.446;2022-10-31T07:25:27;20.08;;;6.50;;
71767;SDS011;59604;52.138;5.446;2022-10-31T07:27:54;20.65;;;7.18;;
71767;SDS011;59604;52.138;5.446;2022-10-31T07:30:21;19.95;;;7.95;;
71767;SDS011;59604;52.138;5.446;2022-10-31T07:32:48;23.00;;;9.60;;
71767;SDS011;59604;52.138;5.446;2022-10-31T07:35:17;21.35;;;8.10;;
71767;SDS011;59604;52.138;5.446;2022-10-31T07:37:45;19.67;;;8.07;;
71767;SDS011;59604;52.138;5.446;2022-10-31T07:40:11;29.05;;;8.63;;
71767;SDS011;59604;52.138;5.446;2022-10-31T07:42:42;24.95;;;9.20;;
71767;SDS011;59604;52.138;5.446;2022-10-31T07:45:11;24.45;;;8.60;;
71767;SDS011;59604;52.138;5.446;2022-10-31T07:47:39;24.20;;;8.68;;
71767;SDS011;59604;52.138;5.446;2022-10-31T07:50:10;29.05;;;10.00;;
71767;SDS011;59604;52.138;5.446;2022-10-31T07:52:38;18.88;;;9.10;;
71767;SDS011;59604;52.138;5.446;2022-10-31T07:55:05;25.70;;;9.55;;
71767;SDS011;59604;52.138;5.446;2022-10-31T07:57:32;28.27;;;9.43;;
71767;SDS011;59604;52.138;5.446;2022-10-31T08:00:00;35.35;;;10.50;;
71767;SDS011;59604;52.138;5.446;2022-10-31T08:02:26;27.02;;;9.73;;
71767;SDS011;59604;52.138;5.446;2022-10-31T08:04:53;25.73;;;10.00;;
71767;SDS011;59604;52.138;5.446;2022-10-31T08:07:26;37.70;;;10.30;;
71767;SDS011;59604;52.138;5.446;2022-10-31T08:09:52;30.27;;;10.23;;
71767;SDS011;59604;52.138;5.446;2022-10-31T08:12:19;25.95;;;10.10;;
71767;SDS011;59604;52.138;5.446;2022-10-31T08:14:46;30.38;;;10.07;;
71767;SDS011;59604;52.138;5.446;2022-10-31T08:17:12;29.70;;;10.13;;
71767;SDS011;59604;52.138;5.446;2022-10-31T08:19:39;27.65;;;10.27;;
71767;SDS011;59604;52.138;5.446;2022-10-31T08:22:06;25.92;;;10.50;;
71767;SDS011;59604;52.138;5.446;2022-10-31T08:24:32;33.20;;;10.77;;
71767;SDS011;59604;52.138;5.446;2022-10-31T08:26:59;45.60;;;11.15;;
71767;SDS011;59604;52.138;5.446;2022-10-31T08:29:25;33.58;;;11.15;;
71767;SDS011;59604;52.138;5.446;2022-10-31T08:31:52;37.30;;;11.40;;
71767;SDS011;59604;52.138;5.446;2022-10-31T08:34:18;34.72;;;12.45;;
71767;SDS011;59604;52.138;5.446;2022-10-31T08:36:45;25.08;;;11.63;;
71767;SDS011;59604;52.138;5.446;2022-10-31T08:39:12;27.48;;;11.48;;
71767;SDS011;59604;52.138;5.446;2022-10-31T08:41:38;23.75;;;11.27;;
71767;SDS011;59604;52.138;5.446;2022-10-31T08:44:05;23.10;;;10.73;;
71767;SDS011;59604;52.138;5.446;2022-10-31T08:46:32;23.00;;;11.35;;
71767;SDS011;59604;52.138;5.446;2022-10-31T08:48:58;21.00;;;10.80;;
71767;SDS011;59604;52.138;5.446;2022-10-31T08:51:25;20.50;;;10.48;;
71767;SDS011;59604;52.138;5.446;2022-10-31T08:53:51;20.67;;;11.43;;
71767;SDS011;59604;52.138;5.446;2022-10-31T08:56:18;22.15;;;11.77;;
71767;SDS011;59604;52.138;5.446;2022-10-31T08:58:44;23.33;;;11.77;;
71767;SDS011;59604;52.138;5.446;2022-10-31T09:01:11;22.52;;;11.77;;
71767;SDS011;59604;52.138;5.446;2022-10-31T09:03:37;21.58;;;11.68;;
71767;SDS011;59604;52.138;5.446;2022-10-31T09:06:04;24.88;;;13.00;;
71767;SDS011;59604;52.138;5.446;2022-10-31T09:08:35;24.90;;;13.65;;
71767;SDS011;59604;52.138;5.446;2022-10-31T09:11:02;24.48;;;13.45;;
71767;SDS011;59604;52.138;5.446;2022-10-31T09:13:29;25.05;;;13.98;;
71767;SDS011;59604;52.138;5.446;2022-10-31T09:15:56;28.02;;;14.80;;
71767;SDS011;59604;52.138;5.446;2022-10-31T09:18:24;25.17;;;14.15;;
71767;SDS011;59604;52.138;5.446;2022-10-31T09:20:54;25.27;;;14.05;;
71767;SDS011;59604;52.138;5.446;2022-10-31T09:23:23;27.45;;;14.80;;
71767;SDS011;59604;52.138;5.446;2022-10-31T09:25:51;29.08;;;15.27;;
71767;SDS011;59604;52.138;5.446;2022-10-31T09:30:47;27.25;;;14.48;;
71767;SDS011;59604;52.138;5.446;2022-10-31T09:33:15;29.20;;;15.75;;
71767;SDS011;59604;52.138;5.446;2022-10-31T09:35:42;31.85;;;16.35;;
71767;SDS011;59604;52.138;5.446;2022-10-31T09:38:10;31.88;;;16.33;;
71767;SDS011;59604;52.138;5.446;2022-10-31T09:40:39;27.98;;;16.05;;
71767;SDS011;59604;52.138;5.446;2022-10-31T09:46:02;26.05;;;14.68;;
71767;SDS011;59604;52.138;5.446;2022-10-31T09:48:37;35.58;;;15.77;;
71767;SDS011;59604;52.138;5.446;2022-10-31T09:51:23;25.08;;;14.40;;
71767;SDS011;59604;52.138;5.446;2022-10-31T09:53:58;27.92;;;14.70;;
71767;SDS011;59604;52.138;5.446;2022-10-31T09:56:36;30.42;;;15.23;;
71767;SDS011;59604;52.138;5.446;2022-10-31T09:59:04;29.15;;;16.17;;
71767;SDS011;59604;52.138;5.446;2022-10-31T10:01:51;27.52;;;14.57;;
71767;SDS011;59604;52.138;5.446;2022-10-31T10:07:11;26.17;;;13.77;;
71767;SDS011;59604;52.138;5.446;2022-10-31T10:09:45;26.20;;;13.52;;
71767;SDS011;59604;52.138;5.446;2022-10-31T10:12:17;31.60;;;13.52;;
71767;SDS011;59604;52.138;5.446;2022-10-31T10:18:14;27.90;;;14.45;;
71767;SDS011;59604;52.138;5.446;2022-10-31T10:26:48;22.65;;;12.40;;
71767;SDS011;59604;52.138;5.446;2022-10-31T10:29:29;23.35;;;12.55;;
71767;SDS011;59604;52.138;5.446;2022-10-31T10:32:01;26.30;;;12.88;;
71767;SDS011;59604;52.138;5.446;2022-10-31T10:34:37;24.95;;;14.05;;
71767;SDS011;59604;52.138;5.446;2022-10-31T10:37:34;24.85;;;12.98;;
71767;SDS011;59604;52.138;5.446;2022-10-31T10:40:15;22.85;;;12.13;;
71767;SDS011;59604;52.138;5.446;2022-10-31T10:42:45;22.38;;;12.93;;
71767;SDS011;59604;52.138;5.446;2022-10-31T10:45:44;25.00;;;13.40;;
71767;SDS011;59604;52.138;5.446;2022-10-31T10:48:44;24.20;;;12.50;;
71767;SDS011;59604;52.138;5.446;2022-10-31T10:54:41;27.15;;;11.95;;
71767;SDS011;59604;52.138;5.446;2022-10-31T11:00:02;22.88;;;9.57;;
71767;SDS011;59604;52.138;5.446;2022-10-31T11:02:44;18.85;;;8.85;;
71767;SDS011;59604;52.138;5.446;2022-10-31T11:05:57;19.10;;;9.40;;
71767;SDS011;59604;52.138;5.446;2022-10-31T11:08:30;21.20;;;9.05;;
71767;SDS011;59604;52.138;5.446;2022-10-31T11:13:36;19.10;;;9.30;;
71767;SDS011;59604;52.138;5.446;2022-10-31T11:16:08;22.17;;;9.75;;
71767;SDS011;59604;52.138;5.446;2022-10-31T11:18:38;18.80;;;9.20;;
71767;SDS011;59604;52.138;5.446;2022-10-31T11:21:17;21.95;;;9.60;;
71767;SDS011;59604;52.138;5.446;2022-10-31T11:24:01;21.58;;;9.15;;
71767;SDS011;59604;52.138;5.446;2022-10-31T11:26:37;16.13;;;8.75;;
71767;SDS011;59604;52.138;5.446;2022-10-31T11:29:09;20.52;;;9.48;;
71767;SDS011;59604;52.138;5.446;2022-10-31T11:31:40;24.50;;;9.63;;
71767;SDS011;59604;52.138;5.446;2022-10-31T11:34:14;19.80;;;9.70;;
71767;SDS011;59604;52.138;5.446;2022-10-31T11:36:45;19.98;;;9.65;;
71767;SDS011;59604;52.138;5.446;2022-10-31T11:39:29;24.58;;;10.15;;
71767;SDS011;59604;52.138;5.446;2022-10-31T11:41:59;23.65;;;9.88;;
71767;SDS011;59604;52.138;5.446;2022-10-31T11:44:34;23.70;;;10.52;;
71767;SDS011;59604;52.138;5.446;2022-10-31T11:47:01;23.55;;;11.23;;
71767;SDS011;59604;52.138;5.446;2022-10-31T11:51:57;24.02;;;10.60;;
71767;SDS011;59604;52.138;5.446;2022-10-31T11:54:28;25.40;;;11.20;;
71767;SDS011;59604;52.138;5.446;2022-10-31T11:56:58;22.33;;;11.02;;
71767;SDS011;59604;52.138;5.446;2022-10-31T11:59:28;24.40;;;11.07;;
71767;SDS011;59604;52.138;5.446;2022-10-31T12:01:59;25.35;;;11.80;;
71767;SDS011;59604;52.138;5.446;2022-10-31T12:04:29;30.35;;;12.48;;
71767;SDS011;59604;52.138;5.446;2022-10-31T12:06:57;25.45;;;11.82;;
71767;SDS011;59604;52.138;5.446;2022-10-31T12:09:27;25.05;;;12.07;;
71767;SDS011;59604;52.138;5.446;2022-10-31T12:17:14;29.38;;;12.70;;
71767;SDS011;59604;52.138;5.446;2022-10-31T12:31:33;29.70;;;13.18;;
71767;SDS011;59604;52.138;5.446;2022-10-31T12:45:44;28.45;;;11.77;;
71767;SDS011;59604;52.138;5.446;2022-10-31T12:56:35;28.77;;;12.50;;
71767;SDS011;59604;52.138;5.446;2022-10-31T13:04:33;29.27;;;12.05;;
71767;SDS011;59604;52.138;5.446;2022-10-31T13:07:08;28.70;;;12.75;;
71767;SDS011;59604;52.138;5.446;2022-10-31T13:09:54;30.02;;;13.15;;
71767;SDS011;59604;52.138;5.446;2022-10-31T13:12:27;30.00;;;12.50;;
71767;SDS011;59604;52.138;5.446;2022-10-31T13:15:04;29.30;;;12.50;;
71767;SDS011;59604;52.138;5.446;2022-10-31T13:17:43;32.42;;;13.65;;
71767;SDS011;59604;52.138;5.446;2022-10-31T13:20:29;30.67;;;14.35;;
71767;SDS011;59604;52.138;5.446;2022-10-31T13:23:08;31.25;;;13.68;;
71767;SDS011;59604;52.138;5.446;2022-10-31T13:26:08;34.22;;;13.13;;
71767;SDS011;59604;52.138;5.446;2022-10-31T13:31:09;39.75;;;14.00;;
71767;SDS011;59604;52.138;5.446;2022-10-31T13:33:53;34.13;;;13.98;;
71767;SDS011;59604;52.138;5.446;2022-10-31T13:36:29;31.25;;;13.82;;
71767;SDS011;59604;52.138;5.446;2022-10-31T13:44:27;34.35;;;14.95;;
71767;SDS011;59604;52.138;5.446;2022-10-31T13:47:03;34.97;;;14.48;;
71767;SDS011;59604;52.138;5.446;2022-10-31T13:49:46;34.95;;;14.73;;
71767;SDS011;59604;52.138;5.446;2022-10-31T13:54:49;34.38;;;14.75;;
71767;SDS011;59604;52.138;5.446;2022-10-31T13:57:25;32.38;;;15.02;;
71767;SDS011;59604;52.138;5.446;2022-10-31T14:00:04;36.10;;;14.95;;
71767;SDS011;59604;52.138;5.446;2022-10-31T14:02:44;32.88;;;14.80;;
71767;SDS011;59604;52.138;5.446;2022-10-31T14:08:18;33.97;;;14.30;;
71767;SDS011;59604;52.138;5.446;2022-10-31T14:10:49;35.33;;;15.60;;
71767;SDS011;59604;52.138;5.446;2022-10-31T14:15:52;32.45;;;14.63;;
71767;SDS011;59604;52.138;5.446;2022-10-31T14:18:23;37.33;;;14.95;;
71767;SDS011;59604;52.138;5.446;2022-10-31T14:20:54;31.58;;;14.00;;
71767;SDS011;59604;52.138;5.446;2022-10-31T14:28:47;32.97;;;14.50;;
71767;SDS011;59604;52.138;5.446;2022-10-31T14:34:19;37.42;;;14.57;;
71767;SDS011;59604;52.138;5.446;2022-10-31T14:37:04;34.13;;;14.30;;
71767;SDS011;59604;52.138;5.446;2022-10-31T14:50:42;37.60;;;15.95;;
71767;SDS011;59604;52.138;5.446;2022-10-31T14:53:26;31.85;;;14.60;;
71767;SDS011;59604;52.138;5.446;2022-10-31T14:55:57;35.22;;;14.93;;
71767;SDS011;59604;52.138;5.446;2022-10-31T14:58:41;34.72;;;15.93;;
71767;SDS011;59604;52.138;5.446;2022-10-31T15:01:25;37.78;;;15.10;;
71767;SDS011;59604;52.138;5.446;2022-10-31T15:04:02;33.92;;;15.02;;
71767;SDS011;59604;52.138;5.446;2022-10-31T15:09:31;35.47;;;15.30;;
71767;SDS011;59604;52.138;5.446;2022-10-31T15:11:59;34.08;;;14.35;;
71767;SDS011;59604;52.138;5.446;2022-10-31T15:14:42;33.70;;;14.93;;
71767;SDS011;59604;52.138;5.446;2022-10-31T15:17:09;38.78;;;14.85;;
71767;SDS011;59604;52.138;5.446;2022-10-31T15:19:37;34.88;;;14.77;;
71767;SDS011;59604;52.138;5.446;2022-10-31T15:22:04;37.20;;;15.23;;
71767;SDS011;59604;52.138;5.446;2022-10-31T15:24:37;35.63;;;14.45;;
71767;SDS011;59604;52.138;5.446;2022-10-31T15:27:17;34.50;;;14.30;;
71767;SDS011;59604;52.138;5.446;2022-10-31T15:29:55;37.50;;;15.43;;
71767;SDS011;59604;52.138;5.446;2022-10-31T15:34:50;34.95;;;14.73;;
71767;SDS011;59604;52.138;5.446;2022-10-31T15:39:47;34.20;;;14.38;;
71767;SDS011;59604;52.138;5.446;2022-10-31T15:42:19;34.42;;;14.77;;
71767;SDS011;59604;52.138;5.446;2022-10-31T15:44:49;33.65;;;15.23;;
71767;SDS011;59604;52.138;5.446;2022-10-31T15:47:22;37.58;;;14.85;;
71767;SDS011;59604;52.138;5.446;2022-10-31T15:49:56;33.70;;;13.98;;
71767;SDS011;59604;52.138;5.446;2022-10-31T15:52:29;34.35;;;14.10;;
71767;SDS011;59604;52.138;5.446;2022-10-31T15:55:20;38.50;;;14.20;;
71767;SDS011;59604;52.138;5.446;2022-10-31T15:57:53;35.40;;;15.27;;
71767;SDS011;59604;52.138;5.446;2022-10-31T16:05:38;36.28;;;13.55;;
71767;SDS011;59604;52.138;5.446;2022-10-31T16:13:34;31.05;;;12.75;;
71767;SDS011;59604;52.138;5.446;2022-10-31T16:16:11;33.75;;;13.00;;
71767;SDS011;59604;52.138;5.446;2022-10-31T16:19:00;31.98;;;13.00;;
71767;SDS011;59604;52.138;5.446;2022-10-31T16:21:29;31.67;;;12.50;;
71767;SDS011;59604;52.138;5.446;2022-10-31T16:24:00;31.83;;;13.85;;
71767;SDS011;59604;52.138;5.446;2022-10-31T16:26:31;31.48;;;12.80;;
71767;SDS011;59604;52.138;5.446;2022-10-31T16:28:58;32.88;;;13.48;;
71767;SDS011;59604;52.138;5.446;2022-10-31T16:31:37;32.63;;;13.30;;
71767;SDS011;59604;52.138;5.446;2022-10-31T16:34:17;31.83;;;13.38;;
71767;SDS011;59604;52.138;5.446;2022-10-31T16:36:52;32.85;;;12.88;;
71767;SDS011;59604;52.138;5.446;2022-10-31T16:39:19;31.90;;;13.05;;
71767;SDS011;59604;52.138;5.446;2022-10-31T16:41:50;31.77;;;12.77;;
71767;SDS011;59604;52.138;5.446;2022-10-31T16:44:19;34.20;;;12.95;;
71767;SDS011;59604;52.138;5.446;2022-10-31T16:46:50;30.50;;;12.52;;
71767;SDS011;59604;52.138;5.446;2022-10-31T16:49:34;34.08;;;12.75;;
71767;SDS011;59604;52.138;5.446;2022-10-31T16:52:01;36.15;;;13.75;;
71767;SDS011;59604;52.138;5.446;2022-10-31T16:54:28;42.65;;;16.63;;
71767;SDS011;59604;52.138;5.446;2022-10-31T16:56:55;44.90;;;15.90;;
71767;SDS011;59604;52.138;5.446;2022-10-31T16:59:24;36.08;;;15.25;;
71767;SDS011;59604;52.138;5.446;2022-10-31T17:01:52;33.35;;;13.85;;
71767;SDS011;59604;52.138;5.446;2022-10-31T17:04:20;32.97;;;14.00;;
71767;SDS011;59604;52.138;5.446;2022-10-31T17:06:47;32.28;;;13.32;;
71767;SDS011;59604;52.138;5.446;2022-10-31T17:09:13;31.42;;;13.38;;
71767;SDS011;59604;52.138;5.446;2022-10-31T17:11:42;37.08;;;13.95;;
71767;SDS011;59604;52.138;5.446;2022-10-31T17:14:15;51.28;;;20.98;;
71767;SDS011;59604;52.138;5.446;2022-10-31T17:16:42;35.65;;;15.48;;
71767;SDS011;59604;52.138;5.446;2022-10-31T17:19:09;35.53;;;14.45;;
71767;SDS011;59604;52.138;5.446;2022-10-31T17:21:37;35.42;;;14.18;;
71767;SDS011;59604;52.138;5.446;2022-10-31T17:24:04;33.95;;;13.90;;
71767;SDS011;59604;52.138;5.446;2022-10-31T17:26:31;35.42;;;14.27;;
71767;SDS011;59604;52.138;5.446;2022-10-31T17:28:58;33.17;;;14.20;;
71767;SDS011;59604;52.138;5.446;2022-10-31T17:31:29;33.00;;;13.82;;